Time;durP1;ratioP1;P1;durP2;ratioP2;P2;SDS_P1;SDS_P2;PMS_P1;PMS_P2;Temp;Humidity;BMP_temperature;BMP_pressure;BME280_temperature;BME280_humidity;BME280_pressure;Samples;Min_cycle;Max_cycle;Signal;HPM_P1;HPM_P2
2022/02/15 03:45:02;;;;;;;27.90;19.92;;;9.30;99.90;;;;;;4877402;29;20081;-77
2022/02/15 07:02:03;;;;;;;31.13;12.63;;;10.70;99.90;;;;;;4899823;29;20129;-76
2022/02/15 08:05:10;;;;;;;8.85;4.32;;;11.30;99.90;;;;;;4898536;29;20067;-77
2022/02/15 09:01:54;;;;;;;;;;;;;;;;;;;;;
2022/02/15 09:07:45;;;;;;;29.27;7.03;;;11.60;99.90;;;;;;4891924;29;20124;-76
2022/02/15 09:10:11;;;;;;;28.13;7.38;;;11.50;99.90;;;;;;4895763;29;20045;-76
2022/02/15 09:12:43;;;;;;;15.88;6.45;;;11.50;99.90;;;;;;4886643;29;20390;-79
2022/02/15 09:15:19;;;;;;;23.52;7.28;;;11.50;99.90;;;;;;4877355;29;20045;-78
2022/02/15 09:17:51;;;;;;;25.02;7.78;;;11.50;99.90;;;;;;4892185;29;20051;-78
2022/02/15 09:20:43;;;;;;;22.08;7.30;;;11.50;99.90;;;;;;4895532;29;20037;-78
2022/02/15 09:23:09;;;;;;;23.35;7.13;;;11.50;99.90;;;;;;4914158;29;20055;-77
2022/02/15 09:25:36;;;;;;;33.17;7.80;;;11.40;99.90;;;;;;4903658;29;20029;-78
2022/02/15 09:28:03;;;;;;;27.38;7.10;;;11.40;99.90;;;;;;4899835;29;20049;-80
2022/02/15 09:30:29;;;;;;;30.85;7.72;;;11.40;99.90;;;;;;4912553;29;20020;-80
2022/02/15 09:32:55;;;;;;;25.10;7.10;;;11.50;99.90;;;;;;4915179;29;20051;-77
2022/02/15 09:35:21;;;;;;;27.38;7.90;;;11.40;99.90;;;;;;4914858;29;20074;-79
2022/02/15 09:37:54;;;;;;;16.02;7.43;;;11.40;99.90;;;;;;4914836;29;20036;-77
2022/02/15 09:40:20;;;;;;;27.30;8.18;;;11.40;99.90;;;;;;4915283;29;20060;-77
2022/02/15 09:42:49;;;;;;;18.63;7.45;;;11.40;99.90;;;;;;4914762;29;20028;-79
2022/02/15 09:45:15;;;;;;;20.30;8.07;;;11.30;99.90;;;;;;4915276;29;20024;-78
2022/02/15 09:47:41;;;;;;;22.90;7.93;;;11.40;99.90;;;;;;4915200;29;20374;-76
2022/02/15 09:50:08;;;;;;;22.10;7.75;;;11.40;99.90;;;;;;4898057;29;20075;-78
2022/02/15 09:52:35;;;;;;;21.83;6.97;;;11.40;99.90;;;;;;4914859;29;20032;-77
2022/02/15 09:55:01;;;;;;;28.48;8.45;;;11.40;99.90;;;;;;4898391;29;20036;-79
2022/02/15 09:57:27;;;;;;;32.55;8.98;;;11.40;99.90;;;;;;4897853;29;20032;-78
2022/02/15 09:59:54;;;;;;;20.80;8.50;;;11.40;99.90;;;;;;4915155;29;20084;-79
2022/02/15 10:02:27;;;;;;;24.33;8.75;;;11.40;99.90;;;;;;4916316;29;20028;-77
2022/02/15 10:05:20;;;;;;;16.35;8.05;;;11.40;99.90;;;;;;4918546;29;20032;-76
2022/02/15 10:08:32;;;;;;;31.52;7.82;;;11.40;99.90;;;;;;4891828;29;20041;-76
2022/02/15 10:11:45;;;;;;;19.75;6.78;;;11.40;99.90;;;;;;4915752;29;20594;-77
2022/02/15 10:14:22;;;;;;;;;;;11.40;99.90;;;;;;4914383;29;20052;-80
2022/02/15 10:16:54;;;;;;;19.88;8.25;;;11.40;99.90;;;;;;4917738;29;19918;-81
2022/02/15 10:19:47;;;;;;;22.75;7.07;;;11.40;99.90;;;;;;4915650;29;20036;-79
2022/02/15 10:22:16;;;;;;;18.85;7.68;;;11.40;99.90;;;;;;4900839;29;20044;-77
2022/02/15 10:24:49;;;;;;;23.98;8.15;;;11.40;99.90;;;;;;4918276;29;20044;-79
2022/02/15 10:27:16;;;;;;;17.13;7.05;;;11.40;99.90;;;;;;4917792;29;20161;-80
2022/02/15 10:29:46;;;;;;;24.45;7.93;;;11.40;99.90;;;;;;4917701;29;20016;-80
2022/02/15 10:32:20;;;;;;;33.60;8.27;;;11.30;99.90;;;;;;4917646;29;20103;-79
2022/02/15 10:34:55;;;;;;;24.02;8.45;;;11.30;99.90;;;;;;4916097;29;20087;-76
2022/02/15 10:37:26;;;;;;;19.15;8.25;;;11.40;99.90;;;;;;4916843;29;20032;-78
2022/02/15 10:39:58;;;;;;;16.65;8.27;;;11.40;99.90;;;;;;4916774;29;20055;-79
2022/02/15 10:42:27;;;;;;;18.67;7.30;;;11.40;99.90;;;;;;4915203;29;20028;-76
2022/02/15 10:45:00;;;;;;;20.05;8.23;;;11.40;99.90;;;;;;4916764;29;20119;-78
2022/02/15 10:47:29;;;;;;;24.73;7.65;;;11.50;99.90;;;;;;4918240;29;20071;-77
2022/02/15 10:49:58;;;;;;;27.70;7.80;;;11.50;99.90;;;;;;4917587;29;20418;-76
2022/02/15 10:52:25;;;;;;;22.70;8.15;;;11.60;99.90;;;;;;4915750;29;20119;-76
2022/02/15 10:54:51;;;;;;;22.35;7.30;;;11.60;99.90;;;;;;4917862;29;20044;-76
2022/02/15 10:57:46;;;;;;;21.60;6.95;;;11.70;99.90;;;;;;4901245;29;20037;-76
2022/02/15 11:03:39;;;;;;;22.30;6.35;;;11.80;99.90;;;;;;4917831;29;20091;-77
2022/02/15 11:06:08;;;;;;;18.48;6.60;;;11.80;99.90;;;;;;4915976;29;20422;-77
2022/02/15 11:08:38;;;;;;;16.10;6.45;;;11.80;99.90;;;;;;4917850;29;20028;-77
2022/02/15 11:11:23;;;;;;;14.27;6.68;;;11.90;99.90;;;;;;4917901;29;20028;-77
2022/02/15 11:13:53;;;;;;;21.50;5.80;;;12.00;99.90;;;;;;4915790;29;20043;-77
2022/02/15 11:16:21;;;;;;;24.90;6.57;;;12.10;99.90;;;;;;4899595;29;20358;-79
2022/02/15 11:18:48;;;;;;;23.90;6.35;;;12.20;99.90;;;;;;4916267;29;20036;-78
2022/02/15 11:21:28;;;;;;;32.72;8.52;;;12.30;99.90;;;;;;4916210;29;20735;-78
2022/02/15 11:23:59;;;;;;;19.52;6.95;;;12.30;99.90;;;;;;4916421;29;20111;-77
2022/02/15 11:26:41;;;;;;;20.48;6.78;;;12.40;99.90;;;;;;4914218;29;20039;-77
2022/02/15 11:29:18;;;;;;;21.13;7.13;;;12.30;99.90;;;;;;4911663;29;20032;-79
2022/02/15 11:31:44;;;;;;;31.13;7.47;;;12.30;99.90;;;;;;4915210;29;20060;-79
2022/02/15 11:34:12;;;;;;;25.90;6.00;;;12.20;99.90;;;;;;4921311;29;20040;-78
2022/02/15 11:36:56;;;;;;;24.17;6.55;;;12.10;99.90;;;;;;4914201;29;20024;-78
2022/02/15 11:39:35;;;;;;;18.63;7.05;;;12.00;99.90;;;;;;4915032;29;20032;-77
2022/02/15 11:42:01;;;;;;;16.90;7.00;;;12.00;99.90;;;;;;4915029;29;20091;-79
2022/02/15 11:44:36;;;;;;;28.80;7.03;;;12.00;99.90;;;;;;4915855;29;20040;-76
2022/02/15 11:47:18;;;;;;;22.10;7.80;;;12.00;99.90;;;;;;4916703;29;20043;-76
2022/02/15 11:50:01;;;;;;;22.05;7.05;;;11.90;99.90;;;;;;4915974;29;20413;-77
2022/02/15 11:52:29;;;;;;;24.02;7.05;;;11.90;99.90;;;;;;4915651;29;20095;-77
2022/02/15 11:55:07;;;;;;;32.33;8.18;;;11.80;99.90;;;;;;4913335;29;20103;-76
2022/02/15 11:57:34;;;;;;;20.17;7.70;;;11.70;99.90;;;;;;4915214;29;20039;-76
2022/02/15 12:00:01;;;;;;;25.08;7.97;;;11.70;99.90;;;;;;4915694;29;20119;-78
2022/02/15 12:02:26;;;;;;;25.40;9.80;;;11.60;99.90;;;;;;4913958;29;20056;-76
2022/02/15 12:04:58;;;;;;;26.73;7.88;;;11.60;99.90;;;;;;4915456;29;20097;-76
2022/02/15 12:07:29;;;;;;;23.80;8.02;;;11.60;99.90;;;;;;4916090;29;20055;-80
2022/02/15 12:10:00;;;;;;;29.60;9.60;;;11.50;99.90;;;;;;4898504;29;20044;-78
2022/02/15 12:12:34;;;;;;;38.47;16.27;;;11.40;99.90;;;;;;4898197;29;20040;-79
2022/02/15 12:15:01;;;;;;;17.33;7.75;;;11.40;99.90;;;;;;4915803;29;20449;-79
2022/02/15 12:17:28;;;;;;;24.10;8.20;;;11.40;99.90;;;;;;4915762;29;20040;-77
2022/02/15 12:19:58;;;;;;;26.40;7.22;;;11.30;99.90;;;;;;4915887;29;20095;-77
2022/02/15 12:22:27;;;;;;;18.92;9.77;;;11.30;99.90;;;;;;4915626;29;20103;-79
2022/02/15 12:24:54;;;;;;;16.60;6.97;;;11.30;99.90;;;;;;4915249;29;20048;-77
2022/02/15 12:27:22;;;;;;;20.73;7.07;;;11.20;99.90;;;;;;4915288;29;20032;-76
2022/02/15 12:29:57;;;;;;;16.10;6.60;;;11.20;99.90;;;;;;4914906;29;20115;-76
2022/02/15 12:32:26;;;;;;;10.30;5.97;;;11.10;99.90;;;;;;4914657;29;20039;-77
2022/02/15 12:34:53;;;;;;;20.52;7.03;;;11.10;99.90;;;;;;4915268;29;20119;-78
2022/02/15 12:37:29;;;;;;;17.05;6.47;;;11.10;99.90;;;;;;4915529;29;20099;-79
2022/02/15 12:40:00;;;;;;;19.80;6.90;;;11.00;99.90;;;;;;4914105;29;20559;-78
2022/02/15 12:42:30;;;;;;;18.13;5.75;;;11.00;99.90;;;;;;4912323;29;20377;-78
2022/02/15 12:45:05;;;;;;;21.25;7.03;;;10.90;99.90;;;;;;4895560;29;20040;-77
2022/02/15 12:47:38;;;;;;;31.33;8.40;;;10.90;99.90;;;;;;4896757;29;20102;-78
2022/02/15 12:50:05;;;;;;;9.00;5.22;;;10.90;99.90;;;;;;4895631;29;20123;-78
2022/02/15 12:52:33;;;;;;;11.60;4.50;;;10.90;99.90;;;;;;4912695;29;20537;-78
2022/02/15 12:55:09;;;;;;;11.73;4.35;;;10.90;99.90;;;;;;4914710;29;20048;-77
2022/02/15 12:57:37;;;;;;;8.20;3.88;;;10.90;99.90;;;;;;4912703;29;20033;-77
2022/02/15 13:00:09;;;;;;;11.35;2.80;;;10.90;99.90;;;;;;4914545;29;20068;-79
2022/02/15 13:02:35;;;;;;;6.95;2.67;;;11.00;99.90;;;;;;4914544;29;20477;-77
2022/02/15 13:05:02;;;;;;;5.03;2.90;;;10.90;99.90;;;;;;4914462;29;20088;-77
2022/02/15 13:07:29;;;;;;;9.00;3.10;;;10.90;99.90;;;;;;4914430;29;20028;-76
2022/02/15 13:09:59;;;;;;;6.60;3.42;;;10.90;99.90;;;;;;4914888;29;20560;-77
2022/02/15 13:12:30;;;;;;;35.42;22.17;;;10.90;99.90;;;;;;4898630;29;20493;-77
2022/02/15 13:15:06;;;;;;;13.85;3.92;;;10.90;99.90;;;;;;4914406;29;20404;-77
2022/02/15 13:17:45;;;;;;;2.65;1.85;;;10.90;99.90;;;;;;4914691;29;20040;-76
2022/02/15 13:20:22;;;;;;;4.82;2.78;;;11.10;99.90;;;;;;4914548;29;20064;-80
2022/02/15 13:22:59;;;;;;;15.18;2.60;;;11.10;99.90;;;;;;4915249;29;20182;-80
2022/02/15 13:25:37;;;;;;;9.15;4.28;;;11.20;99.90;;;;;;4915187;29;20556;-80
2022/02/15 13:28:06;;;;;;;5.68;2.85;;;11.20;99.90;;;;;;4915179;29;20098;-77
2022/02/15 13:30:32;;;;;;;8.32;3.15;;;11.20;99.90;;;;;;4914941;29;20109;-79
2022/02/15 13:33:06;;;;;;;10.57;3.15;;;11.20;99.90;;;;;;4914620;29;20498;-78
2022/02/15 13:35:56;;;;;;;10.25;3.08;;;11.20;99.90;;;;;;4915002;29;20505;-78
2022/02/15 13:38:24;;;;;;;7.63;2.92;;;11.30;99.90;;;;;;4917155;29;20126;-78
2022/02/15 13:40:51;;;;;;;9.25;2.92;;;11.30;99.90;;;;;;4917872;29;20526;-78
2022/02/15 13:43:26;;;;;;;3.85;2.35;;;11.30;99.90;;;;;;4900394;29;20388;-78
2022/02/15 13:45:56;;;;;;;6.60;4.07;;;11.40;99.90;;;;;;4915791;29;20039;-78
2022/02/15 13:48:22;;;;;;;5.50;3.30;;;11.40;99.90;;;;;;4917815;29;20481;-78
2022/02/15 13:50:52;;;;;;;13.98;4.35;;;11.40;99.90;;;;;;4901332;29;20052;-77
2022/02/15 13:53:18;;;;;;;5.90;3.10;;;11.50;99.90;;;;;;4918213;29;20496;-77
2022/02/15 13:55:45;;;;;;;6.90;2.83;;;11.40;99.90;;;;;;4917798;29;20032;-78
2022/02/15 13:58:11;;;;;;;4.82;3.10;;;11.50;99.90;;;;;;4899541;29;20041;-77
2022/02/15 14:00:37;;;;;;;12.23;3.60;;;11.50;99.90;;;;;;4899924;29;20405;-76
2022/02/15 14:03:03;;;;;;;9.60;3.28;;;11.50;99.90;;;;;;4899850;29;20047;-76
2022/02/15 14:05:29;;;;;;;10.63;4.07;;;11.50;99.90;;;;;;4882564;29;20454;-78
2022/02/15 14:07:55;;;;;;;6.88;3.25;;;11.50;99.90;;;;;;4905498;29;20040;-77
2022/02/15 14:10:22;;;;;;;9.40;3.70;;;11.60;99.90;;;;;;4917267;29;20040;-76
2022/02/15 14:12:48;;;;;;;9.63;4.15;;;11.60;99.90;;;;;;4899306;29;20408;-78
2022/02/15 14:15:15;;;;;;;9.70;2.90;;;11.70;99.90;;;;;;4917007;29;20442;-76
2022/02/15 14:17:42;;;;;;;8.57;3.35;;;11.70;99.90;;;;;;4916587;29;20040;-76
2022/02/15 14:20:16;;;;;;;11.20;4.18;;;11.80;99.90;;;;;;4914799;29;20047;-77
2022/02/15 14:22:43;;;;;;;11.55;4.43;;;11.90;99.90;;;;;;4917195;29;20404;-76
2022/02/15 14:25:11;;;;;;;8.70;4.22;;;11.90;99.90;;;;;;4914832;29;20044;-76
2022/02/15 14:27:38;;;;;;;8.45;3.95;;;11.90;99.90;;;;;;4914072;29;20031;-78
2022/02/15 14:30:09;;;;;;;7.40;3.33;;;11.90;99.90;;;;;;4916324;29;20179;-78
2022/02/15 14:32:36;;;;;;;11.50;5.40;;;11.90;99.90;;;;;;4916762;29;20055;-76
2022/02/15 14:35:02;;;;;;;12.32;3.95;;;11.90;99.90;;;;;;4916414;29;20044;-76
2022/02/15 14:37:31;;;;;;;13.25;4.43;;;11.90;99.90;;;;;;4917116;29;20172;-76
2022/02/15 14:39:57;;;;;;;17.85;4.32;;;11.90;99.90;;;;;;4909862;29;20123;-76
2022/02/15 14:42:23;;;;;;;8.80;3.50;;;11.80;99.90;;;;;;4899151;29;20447;-77
2022/02/15 14:44:52;;;;;;;40.92;18.67;;;11.80;99.90;;;;;;4901954;29;20039;-77
2022/02/15 14:47:18;;;;;;;57.47;26.48;;;11.60;99.90;;;;;;4901986;29;20028;-77
2022/02/15 14:49:44;;;;;;;65.68;29.30;;;11.20;99.90;;;;;;4907511;29;20036;-78
2022/02/15 14:52:10;;;;;;;58.95;27.80;;;10.90;99.90;;;;;;4916715;29;20055;-78
2022/02/15 14:54:37;;;;;;;48.25;20.20;;;10.70;99.90;;;;;;4917142;29;20098;-79
2022/02/15 14:57:03;;;;;;;11.25;3.50;;;10.50;99.90;;;;;;4917592;29;20386;-80
2022/02/15 14:59:29;;;;;;;8.45;3.50;;;10.10;99.90;;;;;;4908245;29;20043;-78
2022/02/15 15:01:57;;;;;;;42.20;24.80;;;9.90;99.90;;;;;;4914265;29;20036;-77
2022/02/15 15:04:23;;;;;;;14.30;6.28;;;9.90;99.90;;;;;;4910414;29;20388;-77
2022/02/15 15:06:49;;;;;;;16.85;6.97;;;9.90;99.90;;;;;;4915314;29;20028;-79
2022/02/15 15:09:16;;;;;;;12.75;4.93;;;9.80;99.90;;;;;;4915873;29;20036;-78
2022/02/15 15:11:42;;;;;;;21.08;6.28;;;9.90;99.90;;;;;;4916627;29;20516;-77
2022/02/15 15:14:08;;;;;;;18.83;5.80;;;9.90;99.90;;;;;;4917001;29;20052;-79
2022/02/15 15:16:34;;;;;;;15.85;5.20;;;9.90;99.90;;;;;;4916798;29;20556;-77
2022/02/15 15:19:01;;;;;;;18.77;5.18;;;9.90;99.90;;;;;;4917432;29;20032;-79
2022/02/15 15:21:28;;;;;;;20.70;5.57;;;9.90;99.90;;;;;;4916371;29;20059;-78
2022/02/15 15:23:53;;;;;;;29.23;6.07;;;9.90;99.90;;;;;;4916655;29;20111;-77
2022/02/15 15:26:19;;;;;;;22.13;7.78;;;9.90;99.90;;;;;;4916951;29;20115;-77
2022/02/15 15:28:48;;;;;;;31.17;7.57;;;9.90;99.90;;;;;;4916299;29;20563;-78
2022/02/15 15:31:14;;;;;;;28.30;9.07;;;9.80;99.90;;;;;;4899914;29;20084;-77
2022/02/15 15:33:40;;;;;;;28.50;10.02;;;9.90;99.90;;;;;;4916656;29;20039;-77
2022/02/15 15:36:06;;;;;;;19.75;9.38;;;9.90;99.90;;;;;;4907166;29;20028;-79
2022/02/15 15:38:32;;;;;;;60.60;27.30;;;9.80;99.90;;;;;;4915929;29;20523;-79
2022/02/15 15:40:58;;;;;;;68.68;28.77;;;9.80;99.90;;;;;;4909779;29;20033;-78
2022/02/15 15:43:25;;;;;;;66.40;29.88;;;9.80;99.90;;;;;;4915289;29;20044;-77
2022/02/15 15:45:51;;;;;;;69.20;30.77;;;9.80;99.90;;;;;;4916288;29;20036;-78
2022/02/15 15:48:17;;;;;;;76.90;34.35;;;9.80;99.90;;;;;;4916548;29;20044;-78
2022/02/15 15:50:43;;;;;;;82.82;35.15;;;9.80;99.90;;;;;;4925467;29;20370;-77
2022/02/15 15:53:09;;;;;;;84.15;42.45;;;9.90;99.90;;;;;;4915715;29;20780;-78
2022/02/15 15:55:36;;;;;;;69.45;39.55;;;9.90;99.90;;;;;;4915364;29;20605;-77
2022/02/15 15:58:04;;;;;;;78.00;41.75;;;9.90;99.90;;;;;;4915477;29;20138;-78
2022/02/15 16:00:29;;;;;;;85.00;43.38;;;9.80;99.90;;;;;;4913049;29;20036;-76
2022/02/15 16:02:55;;;;;;;82.88;38.63;;;9.80;99.90;;;;;;4915471;29;20032;-76
2022/02/15 16:05:22;;;;;;;79.35;39.13;;;9.80;99.90;;;;;;4911923;29;20392;-78
2022/02/15 16:07:49;;;;;;;74.15;41.88;;;9.90;99.90;;;;;;4914526;29;20032;-79
2022/02/15 16:10:18;;;;;;;75.43;43.40;;;9.90;99.90;;;;;;4916133;29;20060;-77
2022/02/15 16:12:44;;;;;;;88.07;40.63;;;9.80;99.90;;;;;;4915594;29;20599;-78
2022/02/15 16:15:10;;;;;;;70.82;40.00;;;9.80;99.90;;;;;;4914832;29;20044;-76
2022/02/15 16:17:37;;;;;;;73.90;39.50;;;9.80;99.90;;;;;;4915423;29;20032;-76
2022/02/15 16:20:08;;;;;;;65.60;38.05;;;9.80;99.90;;;;;;4914896;29;20104;-76
2022/02/15 16:22:35;;;;;;;66.43;39.13;;;9.80;99.90;;;;;;4912862;29;20088;-76
2022/02/15 16:25:01;;;;;;;58.88;36.53;;;9.80;99.90;;;;;;4913492;29;20032;-77
2022/02/15 16:27:31;;;;;;;67.88;38.05;;;9.80;99.90;;;;;;4913631;29;20032;-75
2022/02/15 16:29:57;;;;;;;58.05;36.33;;;9.80;99.90;;;;;;4913977;29;20024;-76
2022/02/15 16:32:23;;;;;;;75.65;39.00;;;9.80;99.90;;;;;;4914868;29;20087;-77
2022/02/15 16:34:51;;;;;;;76.20;38.15;;;9.80;99.90;;;;;;4912678;29;20561;-78
2022/02/15 16:37:17;;;;;;;73.57;41.83;;;9.80;99.90;;;;;;4915233;29;20028;-78
2022/02/15 16:39:43;;;;;;;68.68;38.88;;;9.70;99.90;;;;;;4915934;29;20104;-77
2022/02/15 16:42:09;;;;;;;69.15;38.05;;;9.70;99.90;;;;;;4915106;29;20119;-76
2022/02/15 16:44:38;;;;;;;77.28;38.75;;;9.70;99.90;;;;;;4915069;29;20043;-76
2022/02/15 16:47:10;;;;;;;71.20;37.70;;;9.70;99.90;;;;;;4915372;29;20020;-79
2022/02/15 16:49:37;;;;;;;67.07;39.85;;;9.70;99.90;;;;;;4915048;29;20102;-76
2022/02/15 16:52:04;;;;;;;71.72;40.15;;;9.70;99.90;;;;;;4914015;29;20036;-77
2022/02/15 16:54:30;;;;;;;69.40;39.40;;;9.70;99.90;;;;;;4914133;29;20568;-77
2022/02/15 16:56:57;;;;;;;69.50;39.85;;;9.70;99.90;;;;;;4913862;29;20036;-76
2022/02/15 16:59:23;;;;;;;70.53;40.85;;;9.70;99.90;;;;;;4915778;29;20028;-78
2022/02/15 17:01:50;;;;;;;73.35;39.83;;;9.60;99.90;;;;;;4934761;29;20032;-77
2022/02/15 17:04:16;;;;;;;69.75;39.25;;;9.60;99.90;;;;;;4923282;29;20028;-76
2022/02/15 17:06:43;;;;;;;80.88;40.85;;;9.60;99.90;;;;;;4919605;29;20032;-77
2022/02/15 17:09:09;;;;;;;60.95;39.30;;;9.60;99.90;;;;;;4895875;29;20039;-78
2022/02/15 17:11:35;;;;;;;73.13;40.30;;;9.60;99.90;;;;;;4913140;29;20048;-76
2022/02/15 17:14:02;;;;;;;74.88;45.05;;;9.60;99.90;;;;;;4917500;29;20120;-77
2022/02/15 17:16:28;;;;;;;76.03;41.03;;;9.70;99.90;;;;;;4918280;29;20063;-79
2022/02/15 17:18:54;;;;;;;69.20;42.72;;;9.70;99.90;;;;;;4918615;29;20039;-77
2022/02/15 17:21:20;;;;;;;87.78;44.13;;;9.70;99.90;;;;;;4918753;29;20037;-78
2022/02/15 17:23:47;;;;;;;86.47;44.80;;;9.70;99.90;;;;;;4914672;29;20076;-77
2022/02/15 17:26:13;;;;;;;75.35;45.15;;;9.70;99.90;;;;;;4918930;29;20611;-77
2022/02/15 17:28:39;;;;;;;77.20;44.67;;;9.60;99.90;;;;;;4918116;29;20044;-76
2022/02/15 17:31:06;;;;;;;87.00;46.78;;;9.60;99.90;;;;;;4923323;29;20047;-76
2022/02/15 17:33:32;;;;;;;85.43;48.63;;;9.60;99.90;;;;;;4918833;29;20067;-78
2022/02/15 17:35:58;;;;;;;81.85;45.35;;;9.60;99.90;;;;;;4917572;29;20032;-76
2022/02/15 17:38:24;;;;;;;79.75;45.47;;;9.60;99.90;;;;;;4918770;29;20072;-76
2022/02/15 17:40:50;;;;;;;88.68;49.50;;;9.50;99.90;;;;;;4917626;29;20072;-75
2022/02/15 17:43:17;;;;;;;83.53;45.67;;;9.40;99.90;;;;;;4918693;29;20032;-76
2022/02/15 17:45:43;;;;;;;83.07;47.00;;;9.40;99.90;;;;;;4897479;29;20413;-77
2022/02/15 17:48:09;;;;;;;74.30;46.08;;;9.40;99.90;;;;;;4918583;29;20040;-76
2022/02/15 17:50:36;;;;;;;82.88;49.00;;;9.30;99.90;;;;;;4920350;29;20028;-76
2022/02/15 17:53:05;;;;;;;84.30;46.85;;;9.30;99.90;;;;;;4917761;29;20036;-77
2022/02/15 17:55:31;;;;;;;74.85;46.58;;;9.20;99.90;;;;;;4918191;29;20043;-77
2022/02/15 17:57:57;;;;;;;73.63;44.72;;;9.20;99.90;;;;;;4915409;29;20529;-76
2022/02/15 18:00:23;;;;;;;75.82;46.03;;;9.20;99.90;;;;;;4926071;29;20035;-76
2022/02/15 18:02:52;;;;;;;101.45;57.13;;;9.30;99.90;;;;;;4910633;29;20043;-76
2022/02/15 18:05:21;;;;;;;83.55;50.65;;;9.20;99.90;;;;;;4917859;29;20392;-79
2022/02/15 18:07:48;;;;;;;85.28;50.47;;;9.20;99.90;;;;;;4918595;29;20111;-77
2022/02/15 18:10:17;;;;;;;91.28;50.38;;;9.20;99.90;;;;;;4917599;29;20036;-76
2022/02/15 18:12:43;;;;;;;95.15;48.78;;;9.20;99.90;;;;;;4917600;29;20024;-76
2022/02/15 18:15:13;;;;;;;93.85;53.00;;;9.20;99.90;;;;;;4917420;29;20508;-76
2022/02/15 18:17:42;;;;;;;96.75;57.67;;;9.20;99.90;;;;;;4917687;29;20430;-76
2022/02/15 18:20:14;;;;;;;87.55;55.50;;;9.10;99.90;;;;;;4917201;29;20139;-76
2022/02/15 18:23:05;;;;;;;;;;;;;;;;;;;;;
2022/02/15 18:25:34;;;;;;;95.28;54.90;;;9.10;99.90;;;;;;4903799;29;20033;-77
2022/02/15 18:28:05;;;;;;;93.13;58.40;;;9.10;99.90;;;;;;4897200;29;20048;-78
2022/02/15 18:30:33;;;;;;;101.85;57.78;;;9.10;99.90;;;;;;4902653;29;20048;-77
2022/02/15 18:32:59;;;;;;;93.00;55.33;;;9.00;99.90;;;;;;4899486;29;20124;-79
2022/02/15 18:35:25;;;;;;;99.78;59.70;;;9.00;99.90;;;;;;4895971;29;20131;-79
2022/02/15 18:37:51;;;;;;;101.80;57.97;;;9.00;99.90;;;;;;4902270;29;20033;-78
2022/02/15 18:40:18;;;;;;;118.22;67.25;;;8.90;99.90;;;;;;4900207;29;20051;-77
2022/02/15 18:42:44;;;;;;;129.10;71.60;;;8.90;99.90;;;;;;4910509;29;20084;-78
2022/02/15 18:45:15;;;;;;;105.30;59.92;;;8.80;99.90;;;;;;4913999;29;20448;-78
2022/02/15 18:47:44;;;;;;;95.70;53.35;;;8.80;99.90;;;;;;4904012;29;20029;-76
2022/02/15 18:50:10;;;;;;;105.68;54.42;;;8.80;99.90;;;;;;4898243;29;20028;-74
2022/02/15 18:52:37;;;;;;;108.75;55.67;;;8.80;99.90;;;;;;4905159;29;20036;-77
2022/02/15 18:55:07;;;;;;;93.70;53.25;;;8.80;99.90;;;;;;4904131;29;20081;-76
2022/02/15 18:57:33;;;;;;;98.13;52.25;;;8.80;99.90;;;;;;4901137;29;20040;-77
2022/02/15 19:00:04;;;;;;;87.10;51.17;;;8.80;99.90;;;;;;4899069;29;20552;-75
2022/02/15 19:02:39;;;;;;;108.63;54.30;;;8.80;99.90;;;;;;4907188;29;20084;-74
2022/02/15 19:05:09;;;;;;;93.18;52.45;;;8.80;99.90;;;;;;4900598;29;20037;-76
2022/02/15 19:07:35;;;;;;;94.20;49.03;;;8.80;99.90;;;;;;4899792;29;20033;-75
2022/02/15 19:10:03;;;;;;;67.50;40.92;;;8.80;99.90;;;;;;4881610;29;20043;-77
2022/02/15 19:12:29;;;;;;;57.72;36.63;;;8.80;99.90;;;;;;4895942;29;20036;-76
2022/02/15 19:14:55;;;;;;;61.42;35.03;;;8.80;99.90;;;;;;4903996;29;20051;-75
2022/02/15 19:17:22;;;;;;;57.08;33.22;;;8.80;99.90;;;;;;4896660;29;20650;-76
2022/02/15 19:19:50;;;;;;;54.95;30.58;;;8.80;99.90;;;;;;4917263;29;20031;-77
2022/02/15 19:22:56;;;;;;;58.33;32.17;;;8.80;99.90;;;;;;4915653;29;20040;-79
2022/02/15 19:25:22;;;;;;;63.50;34.90;;;8.80;99.90;;;;;;4897512;29;20060;-79
2022/02/15 19:27:48;;;;;;;50.53;31.75;;;8.80;99.90;;;;;;4915695;29;20139;-77
2022/02/15 19:30:14;;;;;;;54.45;30.80;;;8.80;99.90;;;;;;4923865;29;20110;-76
2022/02/15 19:32:40;;;;;;;57.72;34.15;;;8.70;99.90;;;;;;4904103;29;20070;-76
2022/02/15 19:35:06;;;;;;;71.28;38.45;;;8.70;99.90;;;;;;4915415;29;20100;-76
2022/02/15 19:37:33;;;;;;;74.85;38.25;;;8.60;99.90;;;;;;4916686;29;20367;-79
2022/02/15 19:40:01;;;;;;;74.45;40.15;;;8.40;99.90;;;;;;4921777;29;20038;-75
2022/02/15 19:42:27;;;;;;;70.50;37.55;;;8.40;99.90;;;;;;4897653;29;20457;-79
2022/02/15 19:44:53;;;;;;;66.68;38.30;;;8.30;99.90;;;;;;4915846;29;20102;-76
2022/02/15 19:47:19;;;;;;;77.00;38.50;;;8.30;99.90;;;;;;4916574;29;20036;-76
2022/02/15 19:49:45;;;;;;;66.68;34.63;;;8.30;99.90;;;;;;4917121;29;20119;-77
2022/02/15 19:52:11;;;;;;;60.50;33.65;;;8.20;99.90;;;;;;4912118;29;20754;-76
2022/02/15 19:54:37;;;;;;;60.28;34.05;;;8.30;99.90;;;;;;4915332;29;20032;-79
2022/02/15 19:57:03;;;;;;;57.42;33.17;;;8.20;99.90;;;;;;4916089;29;20040;-78
2022/02/15 19:59:32;;;;;;;64.32;34.30;;;8.20;99.90;;;;;;4916985;29;20044;-78
2022/02/15 20:01:58;;;;;;;59.15;33.75;;;8.20;99.90;;;;;;4934865;29;20122;-76
2022/02/15 20:04:24;;;;;;;59.22;34.05;;;8.10;99.90;;;;;;4917373;29;20036;-78
2022/02/15 20:06:50;;;;;;;69.13;38.25;;;8.10;99.90;;;;;;4909459;29;20071;-76
2022/02/15 20:09:17;;;;;;;58.50;35.22;;;8.10;99.90;;;;;;4912296;29;20489;-77
2022/02/15 20:11:43;;;;;;;64.18;35.15;;;8.10;99.90;;;;;;4917417;29;20037;-77
2022/02/15 20:14:10;;;;;;;77.80;35.63;;;8.10;99.90;;;;;;4913280;29;20047;-75
2022/02/15 20:16:37;;;;;;;64.57;35.40;;;8.10;99.90;;;;;;4902800;29;20033;-76
2022/02/15 20:19:06;;;;;;;70.50;37.80;;;8.10;99.90;;;;;;4914916;29;20040;-77
2022/02/15 20:21:32;;;;;;;57.25;35.90;;;8.10;99.90;;;;;;4917367;29;20040;-76
2022/02/15 20:23:59;;;;;;;67.32;38.88;;;8.10;99.90;;;;;;4911722;29;20083;-77
2022/02/15 20:26:25;;;;;;;65.78;38.67;;;8.10;99.90;;;;;;4914923;29;20043;-76
2022/02/15 20:28:51;;;;;;;57.85;34.88;;;8.10;99.90;;;;;;4905023;29;20116;-75
2022/02/15 20:31:17;;;;;;;65.07;35.80;;;8.10;99.90;;;;;;4914074;29;20032;-76
2022/02/15 20:33:43;;;;;;;56.03;33.00;;;8.00;99.90;;;;;;4915294;29;20555;-77
2022/02/15 20:36:09;;;;;;;59.00;32.85;;;8.00;99.90;;;;;;4915502;29;20039;-77
2022/02/15 20:38:39;;;;;;;57.97;34.25;;;8.00;99.90;;;;;;4914827;29;20040;-75
2022/02/15 20:41:05;;;;;;;49.33;31.73;;;8.00;99.90;;;;;;4915109;29;20043;-77
2022/02/15 20:43:31;;;;;;;57.90;35.13;;;8.00;99.90;;;;;;4927598;29;20035;-77
2022/02/15 20:45:59;;;;;;;57.38;36.05;;;8.00;99.90;;;;;;4916759;29;20417;-77
2022/02/15 20:48:26;;;;;;;59.17;36.45;;;8.00;99.90;;;;;;4914629;29;20044;-78
2022/02/15 20:50:53;;;;;;;55.75;33.60;;;8.00;99.90;;;;;;4915755;29;20032;-79
2022/02/15 20:53:19;;;;;;;56.78;33.42;;;7.90;99.90;;;;;;4915461;29;20032;-79
2022/02/15 20:55:47;;;;;;;56.40;35.58;;;8.00;99.90;;;;;;4915194;29;20044;-79
2022/02/15 20:58:13;;;;;;;63.30;34.72;;;8.00;99.90;;;;;;4898601;29;20032;-78
2022/02/15 21:00:40;;;;;;;59.90;36.20;;;8.00;99.90;;;;;;4898621;29;20046;-78
2022/02/15 21:03:06;;;;;;;52.67;30.65;;;8.00;99.90;;;;;;4915151;29;20033;-77
2022/02/15 21:05:32;;;;;;;43.95;27.85;;;7.90;99.90;;;;;;4898161;29;20039;-78
2022/02/15 21:07:59;;;;;;;49.08;28.05;;;7.90;99.90;;;;;;4914279;29;20389;-76
2022/02/15 21:10:27;;;;;;;44.67;28.05;;;7.90;99.90;;;;;;4904894;29;20040;-79
2022/02/15 21:12:53;;;;;;;49.17;29.08;;;7.90;99.90;;;;;;4914628;29;20060;-78
2022/02/15 21:15:20;;;;;;;43.58;26.58;;;7.90;99.90;;;;;;4908828;29;20054;-76
2022/02/15 21:17:46;;;;;;;40.33;26.58;;;7.90;99.90;;;;;;4913262;29;20551;-76
2022/02/15 21:20:13;;;;;;;46.70;27.80;;;7.90;99.90;;;;;;4913892;29;20032;-77
2022/02/15 21:22:43;;;;;;;44.97;27.08;;;7.90;99.90;;;;;;4894576;29;20128;-77
2022/02/15 21:25:09;;;;;;;42.15;26.83;;;7.90;99.90;;;;;;4896125;29;20032;-78
2022/02/15 21:27:37;;;;;;;43.90;26.15;;;7.90;99.90;;;;;;4895912;29;20036;-76
2022/02/15 21:30:07;;;;;;;48.30;29.02;;;7.90;99.90;;;;;;4896624;29;20033;-76
2022/02/15 21:32:33;;;;;;;54.72;29.52;;;7.90;99.90;;;;;;4896503;29;20186;-77
2022/02/15 21:34:59;;;;;;;43.22;27.65;;;7.90;99.90;;;;;;4896091;29;20104;-76
2022/02/15 21:37:26;;;;;;;45.92;26.95;;;7.90;99.90;;;;;;4896316;29;20055;-77
2022/02/15 21:39:52;;;;;;;44.60;27.52;;;7.90;99.90;;;;;;4894805;29;20095;-77
2022/02/15 21:42:18;;;;;;;47.83;27.95;;;7.80;99.90;;;;;;4889040;29;20529;-75
2022/02/15 21:44:44;;;;;;;49.42;30.13;;;7.90;99.90;;;;;;4885074;29;20042;-78
2022/02/15 21:47:10;;;;;;;50.53;31.77;;;7.90;99.90;;;;;;4889853;29;20024;-75
2022/02/15 21:49:37;;;;;;;58.75;35.35;;;7.90;99.90;;;;;;4895359;29;20043;-78